sensor_id;sensor_type;location;lat;lon;timestamp;P1;durP1;ratioP1;P2;durP2;ratioP2
71490;SDS011;59307;50.060;9.150;2023-09-19T00:00:16;4.07;;;1.10;;
71490;SDS011;59307;50.060;9.150;2023-09-19T00:02:44;4.15;;;1.17;;
71490;SDS011;59307;50.060;9.150;2023-09-19T00:05:12;2.10;;;0.90;;
71490;SDS011;59307;50.060;9.150;2023-09-19T00:07:37;2.60;;;1.10;;
71490;SDS011;59307;50.060;9.150;2023-09-19T00:10:02;3.63;;;1.47;;
71490;SDS011;59307;50.060;9.150;2023-09-19T00:12:28;3.63;;;1.20;;
71490;SDS011;59307;50.060;9.150;2023-09-19T00:14:53;1.97;;;0.97;;
71490;SDS011;59307;50.060;9.150;2023-09-19T00:17:18;4.87;;;1.13;;
71490;SDS011;59307;50.060;9.150;2023-09-19T00:19:44;4.07;;;1.17;;
71490;SDS011;59307;50.060;9.150;2023-09-19T00:22:11;2.30;;;1.10;;
71490;SDS011;59307;50.060;9.150;2023-09-19T00:24:38;2.05;;;1.00;;
71490;SDS011;59307;50.060;9.150;2023-09-19T00:27:03;5.23;;;1.03;;
71490;SDS011;59307;50.060;9.150;2023-09-19T00:29:28;5.47;;;1.20;;
71490;SDS011;59307;50.060;9.150;2023-09-19T00:31:54;3.13;;;0.90;;
71490;SDS011;59307;50.060;9.150;2023-09-19T00:34:19;3.80;;;0.95;;
71490;SDS011;59307;50.060;9.150;2023-09-19T00:36:45;2.77;;;1.40;;
71490;SDS011;59307;50.060;9.150;2023-09-19T00:39:10;2.77;;;1.10;;
71490;SDS011;59307;50.060;9.150;2023-09-19T00:41:35;2.50;;;1.10;;
71490;SDS011;59307;50.060;9.150;2023-09-19T00:44:01;1.80;;;0.80;;
71490;SDS011;59307;50.060;9.150;2023-09-19T00:46:27;2.50;;;0.90;;
71490;SDS011;59307;50.060;9.150;2023-09-19T00:48:52;2.83;;;1.17;;
71490;SDS011;59307;50.060;9.150;2023-09-19T00:51:18;3.47;;;0.97;;
71490;SDS011;59307;50.060;9.150;2023-09-19T00:53:47;3.85;;;1.10;;
71490;SDS011;59307;50.060;9.150;2023-09-19T00:56:12;3.67;;;1.00;;
71490;SDS011;59307;50.060;9.150;2023-09-19T00:58:37;1.83;;;1.10;;
71490;SDS011;59307;50.060;9.150;2023-09-19T01:01:03;2.30;;;1.10;;
71490;SDS011;59307;50.060;9.150;2023-09-19T01:03:31;2.97;;;1.40;;
71490;SDS011;59307;50.060;9.150;2023-09-19T01:05:57;2.23;;;1.10;;
71490;SDS011;59307;50.060;9.150;2023-09-19T01:08:22;1.83;;;0.90;;
71490;SDS011;59307;50.060;9.150;2023-09-19T01:10:51;2.70;;;1.20;;
71490;SDS011;59307;50.060;9.150;2023-09-19T01:18:40;3.13;;;1.23;;
71490;SDS011;59307;50.060;9.150;2023-09-19T01:24:01;3.27;;;1.17;;
71490;SDS011;59307;50.060;9.150;2023-09-19T01:32:01;2.65;;;1.40;;
71490;SDS011;59307;50.060;9.150;2023-09-19T01:34:39;3.10;;;1.25;;
71490;SDS011;59307;50.060;9.150;2023-09-19T01:37:08;2.80;;;1.47;;
71490;SDS011;59307;50.060;9.150;2023-09-19T01:39:33;3.67;;;1.33;;
71490;SDS011;59307;50.060;9.150;2023-09-19T01:42:02;4.40;;;1.57;;
71490;SDS011;59307;50.060;9.150;2023-09-19T01:50:17;4.22;;;1.70;;
71490;SDS011;59307;50.060;9.150;2023-09-19T01:52:47;3.90;;;1.40;;
71490;SDS011;59307;50.060;9.150;2023-09-19T01:55:13;3.40;;;1.47;;
71490;SDS011;59307;50.060;9.150;2023-09-19T01:57:49;2.55;;;1.48;;
71490;SDS011;59307;50.060;9.150;2023-09-19T02:00:17;4.70;;;1.77;;
71490;SDS011;59307;50.060;9.150;2023-09-19T02:02:46;4.88;;;1.50;;
71490;SDS011;59307;50.060;9.150;2023-09-19T02:05:12;5.00;;;1.70;;
71490;SDS011;59307;50.060;9.150;2023-09-19T02:07:38;6.10;;;2.07;;
71490;SDS011;59307;50.060;9.150;2023-09-19T02:10:04;2.40;;;1.70;;
71490;SDS011;59307;50.060;9.150;2023-09-19T02:12:30;5.03;;;1.80;;
71490;SDS011;59307;50.060;9.150;2023-09-19T02:14:57;6.45;;;1.98;;
71490;SDS011;59307;50.060;9.150;2023-09-19T02:17:22;4.77;;;1.80;;
71490;SDS011;59307;50.060;9.150;2023-09-19T02:19:51;4.47;;;1.80;;
71490;SDS011;59307;50.060;9.150;2023-09-19T02:22:17;4.87;;;1.87;;
71490;SDS011;59307;50.060;9.150;2023-09-19T02:24:42;3.17;;;1.60;;
71490;SDS011;59307;50.060;9.150;2023-09-19T02:27:08;3.00;;;1.77;;
71490;SDS011;59307;50.060;9.150;2023-09-19T02:29:33;5.33;;;1.63;;
71490;SDS011;59307;50.060;9.150;2023-09-19T02:31:59;2.78;;;1.60;;
71490;SDS011;59307;50.060;9.150;2023-09-19T02:34:26;11.00;;;1.92;;
71490;SDS011;59307;50.060;9.150;2023-09-19T02:36:52;4.30;;;1.73;;
71490;SDS011;59307;50.060;9.150;2023-09-19T02:39:19;2.70;;;1.48;;
71490;SDS011;59307;50.060;9.150;2023-09-19T02:41:45;3.07;;;1.67;;
71490;SDS011;59307;50.060;9.150;2023-09-19T02:44:11;5.57;;;1.98;;
71490;SDS011;59307;50.060;9.150;2023-09-19T02:46:36;6.27;;;1.90;;
71490;SDS011;59307;50.060;9.150;2023-09-19T02:49:02;4.60;;;1.93;;
71490;SDS011;59307;50.060;9.150;2023-09-19T02:51:30;4.32;;;2.03;;
71490;SDS011;59307;50.060;9.150;2023-09-19T02:53:55;6.63;;;2.00;;
71490;SDS011;59307;50.060;9.150;2023-09-19T02:56:20;5.80;;;2.10;;
71490;SDS011;59307;50.060;9.150;2023-09-19T02:58:45;6.30;;;2.07;;
71490;SDS011;59307;50.060;9.150;2023-09-19T03:01:11;4.17;;;2.10;;
71490;SDS011;59307;50.060;9.150;2023-09-19T03:03:43;3.83;;;2.03;;
71490;SDS011;59307;50.060;9.150;2023-09-19T03:06:08;5.37;;;2.10;;
71490;SDS011;59307;50.060;9.150;2023-09-19T03:08:38;3.90;;;2.00;;
71490;SDS011;59307;50.060;9.150;2023-09-19T03:11:04;3.83;;;2.00;;
71490;SDS011;59307;50.060;9.150;2023-09-19T03:13:31;3.97;;;1.90;;
71490;SDS011;59307;50.060;9.150;2023-09-19T03:15:56;5.47;;;1.80;;
71490;SDS011;59307;50.060;9.150;2023-09-19T03:18:23;4.45;;;2.10;;
71490;SDS011;59307;50.060;9.150;2023-09-19T03:20:55;4.83;;;2.20;;
71490;SDS011;59307;50.060;9.150;2023-09-19T03:23:20;5.22;;;2.20;;
71490;SDS011;59307;50.060;9.150;2023-09-19T03:25:45;7.20;;;2.53;;
71490;SDS011;59307;50.060;9.150;2023-09-19T03:28:11;6.60;;;2.53;;
71490;SDS011;59307;50.060;9.150;2023-09-19T03:30:36;4.60;;;2.47;;
71490;SDS011;59307;50.060;9.150;2023-09-19T03:33:03;4.50;;;2.08;;
71490;SDS011;59307;50.060;9.150;2023-09-19T03:35:29;4.50;;;2.20;;
71490;SDS011;59307;50.060;9.150;2023-09-19T03:37:55;4.40;;;2.17;;
71490;SDS011;59307;50.060;9.150;2023-09-19T03:40:20;6.93;;;2.20;;
71490;SDS011;59307;50.060;9.150;2023-09-19T03:42:46;5.63;;;2.20;;
71490;SDS011;59307;50.060;9.150;2023-09-19T03:45:12;11.30;;;2.45;;
71490;SDS011;59307;50.060;9.150;2023-09-19T03:47:40;6.03;;;2.07;;
71490;SDS011;59307;50.060;9.150;2023-09-19T03:50:06;5.70;;;2.33;;
71490;SDS011;59307;50.060;9.150;2023-09-19T03:52:33;6.30;;;2.50;;
71490;SDS011;59307;50.060;9.150;2023-09-19T03:54:58;3.70;;;2.10;;
71490;SDS011;59307;50.060;9.150;2023-09-19T03:57:23;3.93;;;2.07;;
71490;SDS011;59307;50.060;9.150;2023-09-19T03:59:48;4.88;;;2.15;;
71490;SDS011;59307;50.060;9.150;2023-09-19T04:02:14;5.73;;;2.40;;
71490;SDS011;59307;50.060;9.150;2023-09-19T04:04:50;4.47;;;2.40;;
71490;SDS011;59307;50.060;9.150;2023-09-19T04:07:16;4.15;;;2.10;;
71490;SDS011;59307;50.060;9.150;2023-09-19T04:09:41;5.18;;;2.03;;
71490;SDS011;59307;50.060;9.150;2023-09-19T04:12:06;4.05;;;2.40;;
71490;SDS011;59307;50.060;9.150;2023-09-19T04:14:33;6.83;;;2.40;;
71490;SDS011;59307;50.060;9.150;2023-09-19T04:16:59;5.97;;;2.13;;
71490;SDS011;59307;50.060;9.150;2023-09-19T04:19:25;3.92;;;1.98;;
71490;SDS011;59307;50.060;9.150;2023-09-19T04:21:50;4.80;;;2.23;;
71490;SDS011;59307;50.060;9.150;2023-09-19T04:24:15;9.47;;;2.40;;
71490;SDS011;59307;50.060;9.150;2023-09-19T04:26:40;7.87;;;2.60;;
71490;SDS011;59307;50.060;9.150;2023-09-19T04:29:07;4.30;;;2.70;;
71490;SDS011;59307;50.060;9.150;2023-09-19T04:31:34;5.15;;;2.22;;
71490;SDS011;59307;50.060;9.150;2023-09-19T04:33:59;5.40;;;2.50;;
71490;SDS011;59307;50.060;9.150;2023-09-19T04:36:30;4.13;;;2.20;;
71490;SDS011;59307;50.060;9.150;2023-09-19T04:38:55;4.20;;;2.20;;
71490;SDS011;59307;50.060;9.150;2023-09-19T04:41:20;3.63;;;2.10;;
71490;SDS011;59307;50.060;9.150;2023-09-19T04:43:47;5.50;;;2.43;;
71490;SDS011;59307;50.060;9.150;2023-09-19T04:46:12;6.03;;;2.30;;
71490;SDS011;59307;50.060;9.150;2023-09-19T04:48:39;4.90;;;2.30;;
71490;SDS011;59307;50.060;9.150;2023-09-19T04:51:04;4.20;;;2.10;;
71490;SDS011;59307;50.060;9.150;2023-09-19T04:53:30;7.00;;;2.37;;
71490;SDS011;59307;50.060;9.150;2023-09-19T04:55:55;6.07;;;2.50;;
71490;SDS011;59307;50.060;9.150;2023-09-19T04:58:22;6.38;;;2.63;;
71490;SDS011;59307;50.060;9.150;2023-09-19T05:00:47;5.20;;;2.33;;
71490;SDS011;59307;50.060;9.150;2023-09-19T05:03:12;5.00;;;2.30;;
71490;SDS011;59307;50.060;9.150;2023-09-19T05:05:37;5.00;;;2.53;;
71490;SDS011;59307;50.060;9.150;2023-09-19T05:08:03;5.82;;;2.88;;
71490;SDS011;59307;50.060;9.150;2023-09-19T05:10:30;5.50;;;2.43;;
71490;SDS011;59307;50.060;9.150;2023-09-19T05:12:55;5.07;;;2.50;;
71490;SDS011;59307;50.060;9.150;2023-09-19T05:15:21;5.90;;;2.33;;
71490;SDS011;59307;50.060;9.150;2023-09-19T05:17:49;4.90;;;2.53;;
71490;SDS011;59307;50.060;9.150;2023-09-19T05:20:16;6.95;;;2.40;;
71490;SDS011;59307;50.060;9.150;2023-09-19T05:22:41;5.87;;;2.20;;
71490;SDS011;59307;50.060;9.150;2023-09-19T05:25:08;5.78;;;2.30;;
71490;SDS011;59307;50.060;9.150;2023-09-19T05:27:33;4.13;;;2.13;;
71490;SDS011;59307;50.060;9.150;2023-09-19T05:30:01;5.80;;;2.60;;
71490;SDS011;59307;50.060;9.150;2023-09-19T05:32:26;4.63;;;2.70;;
71490;SDS011;59307;50.060;9.150;2023-09-19T05:34:51;5.93;;;2.50;;
71490;SDS011;59307;50.060;9.150;2023-09-19T05:37:18;5.03;;;2.43;;
71490;SDS011;59307;50.060;9.150;2023-09-19T05:39:43;5.88;;;2.63;;
71490;SDS011;59307;50.060;9.150;2023-09-19T05:42:09;4.73;;;2.17;;
71490;SDS011;59307;50.060;9.150;2023-09-19T05:44:34;5.37;;;2.60;;
71490;SDS011;59307;50.060;9.150;2023-09-19T05:47:00;4.82;;;2.88;;
71490;SDS011;59307;50.060;9.150;2023-09-19T05:49:26;4.77;;;2.73;;
71490;SDS011;59307;50.060;9.150;2023-09-19T05:51:51;4.93;;;2.50;;
71490;SDS011;59307;50.060;9.150;2023-09-19T05:54:22;6.57;;;3.13;;
71490;SDS011;59307;50.060;9.150;2023-09-19T05:56:47;4.50;;;2.07;;
71490;SDS011;59307;50.060;9.150;2023-09-19T05:59:12;5.97;;;2.30;;
71490;SDS011;59307;50.060;9.150;2023-09-19T06:01:40;5.35;;;2.13;;
71490;SDS011;59307;50.060;9.150;2023-09-19T06:04:06;5.60;;;2.80;;
71490;SDS011;59307;50.060;9.150;2023-09-19T06:06:31;4.33;;;2.30;;
71490;SDS011;59307;50.060;9.150;2023-09-19T06:08:58;4.78;;;2.30;;
71490;SDS011;59307;50.060;9.150;2023-09-19T06:11:23;7.50;;;2.23;;
71490;SDS011;59307;50.060;9.150;2023-09-19T06:13:51;7.20;;;2.70;;
71490;SDS011;59307;50.060;9.150;2023-09-19T06:16:18;6.93;;;2.55;;
71490;SDS011;59307;50.060;9.150;2023-09-19T06:18:44;5.25;;;2.33;;
71490;SDS011;59307;50.060;9.150;2023-09-19T06:21:10;4.47;;;2.30;;
71490;SDS011;59307;50.060;9.150;2023-09-19T06:23:35;6.23;;;2.30;;
71490;SDS011;59307;50.060;9.150;2023-09-19T06:26:01;5.33;;;2.30;;
71490;SDS011;59307;50.060;9.150;2023-09-19T06:28:26;6.75;;;2.50;;
71490;SDS011;59307;50.060;9.150;2023-09-19T06:30:53;6.20;;;2.67;;
71490;SDS011;59307;50.060;9.150;2023-09-19T06:33:18;5.93;;;2.30;;
71490;SDS011;59307;50.060;9.150;2023-09-19T06:35:46;5.45;;;2.50;;
71490;SDS011;59307;50.060;9.150;2023-09-19T06:38:11;4.10;;;2.30;;
71490;SDS011;59307;50.060;9.150;2023-09-19T06:40:38;5.57;;;2.70;;
71490;SDS011;59307;50.060;9.150;2023-09-19T06:43:03;7.00;;;2.90;;
71490;SDS011;59307;50.060;9.150;2023-09-19T06:45:29;4.20;;;2.10;;
71490;SDS011;59307;50.060;9.150;2023-09-19T06:47:56;4.82;;;2.40;;
71490;SDS011;59307;50.060;9.150;2023-09-19T06:50:22;7.43;;;2.70;;
71490;SDS011;59307;50.060;9.150;2023-09-19T06:52:49;5.05;;;2.58;;
71490;SDS011;59307;50.060;9.150;2023-09-19T06:55:15;6.93;;;2.90;;
71490;SDS011;59307;50.060;9.150;2023-09-19T06:57:41;5.73;;;2.60;;
71490;SDS011;59307;50.060;9.150;2023-09-19T07:00:08;8.23;;;2.92;;
71490;SDS011;59307;50.060;9.150;2023-09-19T07:02:40;5.47;;;2.20;;
71490;SDS011;59307;50.060;9.150;2023-09-19T07:05:06;8.25;;;2.70;;
71490;SDS011;59307;50.060;9.150;2023-09-19T07:07:32;7.57;;;2.80;;
71490;SDS011;59307;50.060;9.150;2023-09-19T07:09:59;6.25;;;2.42;;
71490;SDS011;59307;50.060;9.150;2023-09-19T07:12:25;7.17;;;2.57;;
71490;SDS011;59307;50.060;9.150;2023-09-19T07:14:50;6.15;;;2.65;;
71490;SDS011;59307;50.060;9.150;2023-09-19T07:17:15;6.63;;;2.30;;
71490;SDS011;59307;50.060;9.150;2023-09-19T07:19:43;4.60;;;2.50;;
71490;SDS011;59307;50.060;9.150;2023-09-19T07:22:09;5.30;;;2.23;;
71490;SDS011;59307;50.060;9.150;2023-09-19T07:24:34;8.60;;;2.20;;
71490;SDS011;59307;50.060;9.150;2023-09-19T07:27:01;3.65;;;1.77;;
71490;SDS011;59307;50.060;9.150;2023-09-19T07:29:26;6.60;;;2.30;;
71490;SDS011;59307;50.060;9.150;2023-09-19T07:31:52;8.43;;;2.33;;
71490;SDS011;59307;50.060;9.150;2023-09-19T07:34:17;6.97;;;2.30;;
71490;SDS011;59307;50.060;9.150;2023-09-19T07:36:43;3.80;;;1.83;;
71490;SDS011;59307;50.060;9.150;2023-09-19T07:39:08;4.30;;;1.90;;
71490;SDS011;59307;50.060;9.150;2023-09-19T07:41:34;6.40;;;2.10;;
71490;SDS011;59307;50.060;9.150;2023-09-19T07:43:59;6.93;;;1.50;;
71490;SDS011;59307;50.060;9.150;2023-09-19T07:46:24;5.47;;;1.67;;
71490;SDS011;59307;50.060;9.150;2023-09-19T07:48:51;7.72;;;1.90;;
71490;SDS011;59307;50.060;9.150;2023-09-19T07:51:16;3.90;;;1.70;;
71490;SDS011;59307;50.060;9.150;2023-09-19T07:53:42;7.73;;;1.90;;
71490;SDS011;59307;50.060;9.150;2023-09-19T07:56:08;6.00;;;1.83;;
71490;SDS011;59307;50.060;9.150;2023-09-19T07:58:34;4.70;;;1.65;;
71490;SDS011;59307;50.060;9.150;2023-09-19T08:01:03;5.97;;;1.63;;
71490;SDS011;59307;50.060;9.150;2023-09-19T08:03:29;6.22;;;1.90;;
71490;SDS011;59307;50.060;9.150;2023-09-19T08:05:55;6.67;;;2.20;;
71490;SDS011;59307;50.060;9.150;2023-09-19T08:08:21;6.05;;;1.90;;
71490;SDS011;59307;50.060;9.150;2023-09-19T08:10:52;5.07;;;1.90;;
71490;SDS011;59307;50.060;9.150;2023-09-19T08:13:17;5.03;;;1.80;;
71490;SDS011;59307;50.060;9.150;2023-09-19T08:15:43;5.43;;;2.17;;
71490;SDS011;59307;50.060;9.150;2023-09-19T08:18:09;4.53;;;1.60;;
71490;SDS011;59307;50.060;9.150;2023-09-19T08:20:37;5.90;;;2.17;;
71490;SDS011;59307;50.060;9.150;2023-09-19T08:23:03;6.27;;;2.10;;
71490;SDS011;59307;50.060;9.150;2023-09-19T08:25:28;7.37;;;2.10;;
71490;SDS011;59307;50.060;9.150;2023-09-19T08:27:54;5.00;;;2.00;;
71490;SDS011;59307;50.060;9.150;2023-09-19T08:30:21;4.78;;;1.85;;
71490;SDS011;59307;50.060;9.150;2023-09-19T08:32:49;5.13;;;1.83;;
71490;SDS011;59307;50.060;9.150;2023-09-19T08:35:15;5.47;;;1.87;;
71490;SDS011;59307;50.060;9.150;2023-09-19T08:37:40;5.93;;;2.00;;
71490;SDS011;59307;50.060;9.150;2023-09-19T08:40:05;3.43;;;1.97;;
71490;SDS011;59307;50.060;9.150;2023-09-19T08:42:46;3.80;;;1.50;;
71490;SDS011;59307;50.060;9.150;2023-09-19T08:45:12;2.85;;;1.42;;
71490;SDS011;59307;50.060;9.150;2023-09-19T08:47:38;4.33;;;1.50;;
71490;SDS011;59307;50.060;9.150;2023-09-19T08:50:15;6.05;;;1.60;;
71490;SDS011;59307;50.060;9.150;2023-09-19T08:52:42;5.28;;;1.60;;
71490;SDS011;59307;50.060;9.150;2023-09-19T08:55:07;5.17;;;1.60;;
71490;SDS011;59307;50.060;9.150;2023-09-19T08:57:36;3.28;;;1.70;;
71490;SDS011;59307;50.060;9.150;2023-09-19T09:00:07;3.30;;;1.40;;
71490;SDS011;59307;50.060;9.150;2023-09-19T09:02:35;6.60;;;2.05;;
71490;SDS011;59307;50.060;9.150;2023-09-19T09:05:01;4.75;;;1.60;;
71490;SDS011;59307;50.060;9.150;2023-09-19T09:07:30;3.83;;;1.93;;
71490;SDS011;59307;50.060;9.150;2023-09-19T09:09:55;4.60;;;1.60;;
71490;SDS011;59307;50.060;9.150;2023-09-19T09:12:21;4.30;;;1.60;;
71490;SDS011;59307;50.060;9.150;2023-09-19T09:14:46;2.50;;;1.40;;
71490;SDS011;59307;50.060;9.150;2023-09-19T09:17:13;7.57;;;1.88;;
71490;SDS011;59307;50.060;9.150;2023-09-19T09:19:39;8.40;;;1.80;;
71490;SDS011;59307;50.060;9.150;2023-09-19T09:22:10;4.17;;;1.40;;
71490;SDS011;59307;50.060;9.150;2023-09-19T09:24:36;6.70;;;1.70;;
71490;SDS011;59307;50.060;9.150;2023-09-19T09:27:06;3.13;;;1.40;;
71490;SDS011;59307;50.060;9.150;2023-09-19T09:29:41;5.57;;;1.57;;
71490;SDS011;59307;50.060;9.150;2023-09-19T09:32:20;4.75;;;1.80;;
71490;SDS011;59307;50.060;9.150;2023-09-19T09:34:46;4.43;;;1.45;;
71490;SDS011;59307;50.060;9.150;2023-09-19T09:37:14;3.80;;;1.40;;
71490;SDS011;59307;50.060;9.150;2023-09-19T09:39:40;4.38;;;1.50;;
71490;SDS011;59307;50.060;9.150;2023-09-19T09:42:23;4.50;;;1.60;;
71490;SDS011;59307;50.060;9.150;2023-09-19T09:45:11;6.57;;;1.90;;
71490;SDS011;59307;50.060;9.150;2023-09-19T09:47:41;6.50;;;1.60;;
71490;SDS011;59307;50.060;9.150;2023-09-19T09:50:06;5.38;;;1.50;;
71490;SDS011;59307;50.060;9.150;2023-09-19T09:52:34;5.63;;;1.43;;
71490;SDS011;59307;50.060;9.150;2023-09-19T09:55:09;3.70;;;1.60;;
71490;SDS011;59307;50.060;9.150;2023-09-19T09:57:35;3.50;;;1.40;;
71490;SDS011;59307;50.060;9.150;2023-09-19T10:00:01;4.07;;;1.37;;
71490;SDS011;59307;50.060;9.150;2023-09-19T10:02:38;6.88;;;1.70;;
71490;SDS011;59307;50.060;9.150;2023-09-19T10:05:11;6.20;;;1.70;;
71490;SDS011;59307;50.060;9.150;2023-09-19T10:07:49;6.45;;;1.50;;
71490;SDS011;59307;50.060;9.150;2023-09-19T10:10:37;3.13;;;1.42;;
71490;SDS011;59307;50.060;9.150;2023-09-19T10:13:08;4.65;;;1.58;;
71490;SDS011;59307;50.060;9.150;2023-09-19T10:15:37;5.40;;;1.60;;
71490;SDS011;59307;50.060;9.150;2023-09-19T10:18:06;5.37;;;1.53;;
71490;SDS011;59307;50.060;9.150;2023-09-19T10:20:33;3.22;;;1.50;;
71490;SDS011;59307;50.060;9.150;2023-09-19T10:23:05;5.18;;;1.50;;
71490;SDS011;59307;50.060;9.150;2023-09-19T10:25:34;5.30;;;1.60;;
71490;SDS011;59307;50.060;9.150;2023-09-19T10:28:01;4.20;;;1.47;;
71490;SDS011;59307;50.060;9.150;2023-09-19T10:30:31;6.47;;;1.60;;
71490;SDS011;59307;50.060;9.150;2023-09-19T10:33:00;5.50;;;1.70;;
71490;SDS011;59307;50.060;9.150;2023-09-19T10:35:26;3.40;;;1.35;;
71490;SDS011;59307;50.060;9.150;2023-09-19T10:37:51;4.57;;;1.43;;
71490;SDS011;59307;50.060;9.150;2023-09-19T10:40:19;5.10;;;1.88;;
71490;SDS011;59307;50.060;9.150;2023-09-19T10:42:46;3.50;;;1.50;;
71490;SDS011;59307;50.060;9.150;2023-09-19T10:45:13;5.43;;;1.70;;
71490;SDS011;59307;50.060;9.150;2023-09-19T10:47:40;7.30;;;1.90;;
71490;SDS011;59307;50.060;9.150;2023-09-19T10:50:06;4.23;;;1.40;;
71490;SDS011;59307;50.060;9.150;2023-09-19T10:52:37;5.15;;;1.33;;
71490;SDS011;59307;50.060;9.150;2023-09-19T10:55:04;4.30;;;1.33;;
71490;SDS011;59307;50.060;9.150;2023-09-19T10:57:31;4.70;;;1.35;;
71490;SDS011;59307;50.060;9.150;2023-09-19T11:00:02;5.37;;;1.80;;
71490;SDS011;59307;50.060;9.150;2023-09-19T11:05:31;8.20;;;2.00;;
71490;SDS011;59307;50.060;9.150;2023-09-19T11:07:57;5.63;;;1.70;;
71490;SDS011;59307;50.060;9.150;2023-09-19T11:13:49;4.38;;;1.45;;
71490;SDS011;59307;50.060;9.150;2023-09-19T11:26:41;5.32;;;1.60;;
71490;SDS011;59307;50.060;9.150;2023-09-19T11:29:28;4.68;;;1.40;;
71490;SDS011;59307;50.060;9.150;2023-09-19T11:31:54;8.33;;;2.27;;
71490;SDS011;59307;50.060;9.150;2023-09-19T11:37:00;5.22;;;1.58;;
71490;SDS011;59307;50.060;9.150;2023-09-19T11:39:28;4.90;;;1.38;;
71490;SDS011;59307;50.060;9.150;2023-09-19T11:41:54;7.07;;;1.87;;
71490;SDS011;59307;50.060;9.150;2023-09-19T11:46:55;6.05;;;1.30;;
71490;SDS011;59307;50.060;9.150;2023-09-19T11:49:27;5.97;;;1.53;;
71490;SDS011;59307;50.060;9.150;2023-09-19T11:51:56;5.35;;;1.30;;
71490;SDS011;59307;50.060;9.150;2023-09-19T11:54:22;5.13;;;1.77;;
71490;SDS011;59307;50.060;9.150;2023-09-19T11:56:49;4.95;;;1.50;;
71490;SDS011;59307;50.060;9.150;2023-09-19T11:59:22;6.40;;;2.17;;
71490;SDS011;59307;50.060;9.150;2023-09-19T12:01:51;6.30;;;1.73;;
71490;SDS011;59307;50.060;9.150;2023-09-19T12:04:22;5.10;;;1.73;;
71490;SDS011;59307;50.060;9.150;2023-09-19T12:06:57;4.80;;;1.60;;
71490;SDS011;59307;50.060;9.150;2023-09-19T12:09:23;5.70;;;1.47;;
71490;SDS011;59307;50.060;9.150;2023-09-19T12:11:50;5.25;;;1.30;;
71490;SDS011;59307;50.060;9.150;2023-09-19T12:14:23;5.43;;;1.35;;
71490;SDS011;59307;50.060;9.150;2023-09-19T12:16:56;6.82;;;1.67;;
71490;SDS011;59307;50.060;9.150;2023-09-19T12:19:22;4.50;;;1.50;;
71490;SDS011;59307;50.060;9.150;2023-09-19T12:21:58;6.80;;;1.77;;
71490;SDS011;59307;50.060;9.150;2023-09-19T12:24:24;8.73;;;2.45;;
71490;SDS011;59307;50.060;9.150;2023-09-19T12:26:51;6.38;;;1.50;;
71490;SDS011;59307;50.060;9.150;2023-09-19T12:34:22;2.92;;;1.17;;
71490;SDS011;59307;50.060;9.150;2023-09-19T12:36:48;5.53;;;1.90;;
71490;SDS011;59307;50.060;9.150;2023-09-19T12:39:26;8.18;;;1.90;;
71490;SDS011;59307;50.060;9.150;2023-09-19T12:41:51;7.15;;;1.50;;
71490;SDS011;59307;50.060;9.150;2023-09-19T12:44:18;5.47;;;1.63;;
71490;SDS011;59307;50.060;9.150;2023-09-19T12:46:44;7.07;;;1.50;;
71490;SDS011;59307;50.060;9.150;2023-09-19T12:49:16;6.67;;;1.60;;
71490;SDS011;59307;50.060;9.150;2023-09-19T12:51:48;5.47;;;1.63;;
71490;SDS011;59307;50.060;9.150;2023-09-19T12:54:13;6.13;;;1.67;;
71490;SDS011;59307;50.060;9.150;2023-09-19T12:56:45;4.85;;;1.60;;
71490;SDS011;59307;50.060;9.150;2023-09-19T12:59:12;6.63;;;1.60;;
71490;SDS011;59307;50.060;9.150;2023-09-19T13:01:38;4.03;;;1.17;;
71490;SDS011;59307;50.060;9.150;2023-09-19T13:04:15;5.30;;;1.83;;
71490;SDS011;59307;50.060;9.150;2023-09-19T13:06:44;9.07;;;1.77;;
71490;SDS011;59307;50.060;9.150;2023-09-19T13:09:11;6.50;;;1.52;;
71490;SDS011;59307;50.060;9.150;2023-09-19T13:11:37;5.33;;;1.30;;
71490;SDS011;59307;50.060;9.150;2023-09-19T13:20:05;4.40;;;1.70;;
71490;SDS011;59307;50.060;9.150;2023-09-19T13:24:58;4.87;;;1.60;;
71490;SDS011;59307;50.060;9.150;2023-09-19T13:27:24;6.35;;;1.98;;
71490;SDS011;59307;50.060;9.150;2023-09-19T13:29:49;5.30;;;1.60;;
71490;SDS011;59307;50.060;9.150;2023-09-19T13:32:14;5.13;;;1.67;;
71490;SDS011;59307;50.060;9.150;2023-09-19T13:34:39;7.83;;;1.67;;
71490;SDS011;59307;50.060;9.150;2023-09-19T13:37:04;6.83;;;2.07;;
71490;SDS011;59307;50.060;9.150;2023-09-19T13:39:31;4.73;;;1.80;;
71490;SDS011;59307;50.060;9.150;2023-09-19T13:41:56;5.50;;;1.70;;
71490;SDS011;59307;50.060;9.150;2023-09-19T13:44:21;4.40;;;1.50;;
71490;SDS011;59307;50.060;9.150;2023-09-19T13:46:46;6.17;;;1.67;;
71490;SDS011;59307;50.060;9.150;2023-09-19T13:49:12;4.93;;;1.80;;
71490;SDS011;59307;50.060;9.150;2023-09-19T13:51:37;5.03;;;1.27;;
71490;SDS011;59307;50.060;9.150;2023-09-19T13:54:02;2.70;;;1.60;;
71490;SDS011;59307;50.060;9.150;2023-09-19T13:56:27;3.33;;;1.47;;
71490;SDS011;59307;50.060;9.150;2023-09-19T13:58:53;5.40;;;1.70;;
71490;SDS011;59307;50.060;9.150;2023-09-19T14:01:19;5.07;;;1.50;;
71490;SDS011;59307;50.060;9.150;2023-09-19T14:03:44;5.10;;;1.53;;
71490;SDS011;59307;50.060;9.150;2023-09-19T14:06:18;5.93;;;1.80;;
71490;SDS011;59307;50.060;9.150;2023-09-19T14:08:44;7.05;;;1.80;;
71490;SDS011;59307;50.060;9.150;2023-09-19T14:11:12;2.55;;;1.38;;
71490;SDS011;59307;50.060;9.150;2023-09-19T14:13:37;4.47;;;1.30;;
71490;SDS011;59307;50.060;9.150;2023-09-19T14:16:03;5.43;;;1.30;;
71490;SDS011;59307;50.060;9.150;2023-09-19T14:18:29;6.18;;;2.05;;
71490;SDS011;59307;50.060;9.150;2023-09-19T14:20:55;5.90;;;1.47;;
71490;SDS011;59307;50.060;9.150;2023-09-19T14:23:20;3.83;;;1.80;;
71490;SDS011;59307;50.060;9.150;2023-09-19T14:25:45;4.90;;;1.70;;
71490;SDS011;59307;50.060;9.150;2023-09-19T14:28:10;4.83;;;1.50;;
71490;SDS011;59307;50.060;9.150;2023-09-19T14:30:35;4.03;;;1.40;;
71490;SDS011;59307;50.060;9.150;2023-09-19T14:33:02;4.75;;;1.40;;
71490;SDS011;59307;50.060;9.150;2023-09-19T14:35:27;3.43;;;1.60;;
71490;SDS011;59307;50.060;9.150;2023-09-19T14:37:52;3.53;;;1.40;;
71490;SDS011;59307;50.060;9.150;2023-09-19T14:40:17;4.30;;;1.40;;
71490;SDS011;59307;50.060;9.150;2023-09-19T14:42:43;4.80;;;1.70;;
71490;SDS011;59307;50.060;9.150;2023-09-19T14:45:10;3.50;;;1.50;;
71490;SDS011;59307;50.060;9.150;2023-09-19T14:47:36;3.60;;;1.33;;
71490;SDS011;59307;50.060;9.150;2023-09-19T14:50:02;7.00;;;1.67;;
71490;SDS011;59307;50.060;9.150;2023-09-19T14:52:31;3.58;;;1.40;;
71490;SDS011;59307;50.060;9.150;2023-09-19T14:54:56;5.40;;;1.60;;
71490;SDS011;59307;50.060;9.150;2023-09-19T14:57:21;3.57;;;1.40;;
71490;SDS011;59307;50.060;9.150;2023-09-19T14:59:49;4.10;;;1.40;;
71490;SDS011;59307;50.060;9.150;2023-09-19T15:02:14;2.70;;;1.50;;
71490;SDS011;59307;50.060;9.150;2023-09-19T15:04:41;3.85;;;1.30;;
71490;SDS011;59307;50.060;9.150;2023-09-19T15:07:09;4.85;;;1.63;;
71490;SDS011;59307;50.060;9.150;2023-09-19T15:09:34;5.33;;;1.63;;
71490;SDS011;59307;50.060;9.150;2023-09-19T15:12:00;3.45;;;1.50;;
71490;SDS011;59307;50.060;9.150;2023-09-19T15:14:26;4.03;;;1.30;;
71490;SDS011;59307;50.060;9.150;2023-09-19T15:16:51;5.50;;;1.30;;
71490;SDS011;59307;50.060;9.150;2023-09-19T15:19:17;5.47;;;1.30;;
71490;SDS011;59307;50.060;9.150;2023-09-19T15:21:42;5.57;;;1.42;;
71490;SDS011;59307;50.060;9.150;2023-09-19T15:24:07;3.43;;;1.40;;
71490;SDS011;59307;50.060;9.150;2023-09-19T15:26:36;2.30;;;1.10;;
71490;SDS011;59307;50.060;9.150;2023-09-19T15:29:05;6.22;;;1.38;;
71490;SDS011;59307;50.060;9.150;2023-09-19T15:31:30;6.00;;;1.25;;
71490;SDS011;59307;50.060;9.150;2023-09-19T15:33:55;2.77;;;1.23;;
71490;SDS011;59307;50.060;9.150;2023-09-19T15:36:20;3.67;;;1.17;;
71490;SDS011;59307;50.060;9.150;2023-09-19T15:41:24;4.55;;;1.30;;
71490;SDS011;59307;50.060;9.150;2023-09-19T15:43:49;2.63;;;1.30;;